Terminal Aerodrome Forecast
Issued by NWS Charleston, WV

Current Version | Previous Version | Graphics & Text | Print | Product List | Glossary On
Versions: 1 2 3 4 5 6 7 8 9 10 11 12 13 14 15 16 17 18 19 20 21 22 23
525
FTUS41 KRLX 191120
TAFPKB
TAF
KPKB 191120Z 1912/2012 13008KT P6SM OVC060
     FM191400 17010G18KT P6SM SCT070
     FM191900 21009G22KT P6SM SHRA VCTS BKN060CB
     FM200000 22007KT P6SM BKN060
     FM200600 23005KT P6SM BKN030=

USA.gov is the U.S. government's official web portal to all federal, state and local government web resources and services.